sensor_id;sensor_type;location;lat;lon;timestamp;temperature;humidity
56137;DHT22;42008;52.934;5.884;2023-02-23T00:01:20;11.10;99.90
56137;DHT22;42008;52.934;5.884;2023-02-23T00:03:47;11.30;99.90
56137;DHT22;42008;52.934;5.884;2023-02-23T00:06:15;11.20;99.90
56137;DHT22;42008;52.934;5.884;2023-02-23T00:08:41;10.90;99.90
56137;DHT22;42008;52.934;5.884;2023-02-23T00:11:10;10.30;99.90
56137;DHT22;42008;52.934;5.884;2023-02-23T00:13:39;10.80;99.90
56137;DHT22;42008;52.934;5.884;2023-02-23T00:18:31;11.10;99.90
56137;DHT22;42008;52.934;5.884;2023-02-23T00:21:05;11.20;99.90
56137;DHT22;42008;52.934;5.884;2023-02-23T00:23:31;11.50;99.90
56137;DHT22;42008;52.934;5.884;2023-02-23T00:25:56;11.10;99.90
56137;DHT22;42008;52.934;5.884;2023-02-23T00:28:23;11.50;99.90
56137;DHT22;42008;52.934;5.884;2023-02-23T00:30:49;11.40;99.90
56137;DHT22;42008;52.934;5.884;2023-02-23T00:33:15;11.80;99.90
56137;DHT22;42008;52.934;5.884;2023-02-23T00:35:40;10.90;99.90
56137;DHT22;42008;52.934;5.884;2023-02-23T00:38:07;11.90;99.90
56137;DHT22;42008;52.934;5.884;2023-02-23T00:40:32;12.10;99.90
56137;DHT22;42008;52.934;5.884;2023-02-23T00:42:58;10.30;99.90
56137;DHT22;42008;52.934;5.884;2023-02-23T00:45:23;11.80;99.90
56137;DHT22;42008;52.934;5.884;2023-02-23T00:47:49;10.40;99.90
56137;DHT22;42008;52.934;5.884;2023-02-23T00:50:16;11.10;99.90
56137;DHT22;42008;52.934;5.884;2023-02-23T00:52:43;11.90;99.90
56137;DHT22;42008;52.934;5.884;2023-02-23T00:55:11;11.40;99.90
56137;DHT22;42008;52.934;5.884;2023-02-23T00:57:37;11.60;99.90
56137;DHT22;42008;52.934;5.884;2023-02-23T01:00:09;11.40;99.90
56137;DHT22;42008;52.934;5.884;2023-02-23T01:02:41;11.70;99.90
56137;DHT22;42008;52.934;5.884;2023-02-23T01:05:07;11.10;99.90
56137;DHT22;42008;52.934;5.884;2023-02-23T01:07:34;11.20;99.90
56137;DHT22;42008;52.934;5.884;2023-02-23T01:09:59;11.90;99.90
56137;DHT22;42008;52.934;5.884;2023-02-23T01:12:25;11.00;99.90
56137;DHT22;42008;52.934;5.884;2023-02-23T01:14:50;11.30;99.90
56137;DHT22;42008;52.934;5.884;2023-02-23T01:17:16;10.30;99.90
56137;DHT22;42008;52.934;5.884;2023-02-23T01:19:42;11.00;99.90
56137;DHT22;42008;52.934;5.884;2023-02-23T01:22:07;11.60;99.90
56137;DHT22;42008;52.934;5.884;2023-02-23T01:24:33;11.50;99.90
56137;DHT22;42008;52.934;5.884;2023-02-23T01:26:59;10.70;99.90
56137;DHT22;42008;52.934;5.884;2023-02-23T01:29:24;10.70;99.90
56137;DHT22;42008;52.934;5.884;2023-02-23T01:31:50;11.90;99.90
56137;DHT22;42008;52.934;5.884;2023-02-23T01:34:16;11.20;99.90
56137;DHT22;42008;52.934;5.884;2023-02-23T01:36:43;11.40;99.90
56137;DHT22;42008;52.934;5.884;2023-02-23T01:39:15;11.40;99.90
56137;DHT22;42008;52.934;5.884;2023-02-23T01:41:41;10.50;99.90
56137;DHT22;42008;52.934;5.884;2023-02-23T01:46:55;11.60;99.90
56137;DHT22;42008;52.934;5.884;2023-02-23T01:49:28;11.50;99.90
56137;DHT22;42008;52.934;5.884;2023-02-23T01:54:27;11.50;99.90
56137;DHT22;42008;52.934;5.884;2023-02-23T01:56:57;11.40;99.90
56137;DHT22;42008;52.934;5.884;2023-02-23T01:59:43;11.20;99.90
56137;DHT22;42008;52.934;5.884;2023-02-23T02:02:09;10.80;99.90
56137;DHT22;42008;52.934;5.884;2023-02-23T02:04:37;10.90;99.90
56137;DHT22;42008;52.934;5.884;2023-02-23T02:07:21;11.00;99.90
56137;DHT22;42008;52.934;5.884;2023-02-23T02:09:51;11.30;99.90
56137;DHT22;42008;52.934;5.884;2023-02-23T02:12:39;12.30;99.90
56137;DHT22;42008;52.934;5.884;2023-02-23T02:15:06;10.90;99.90
56137;DHT22;42008;52.934;5.884;2023-02-23T02:23:49;11.60;99.90
56137;DHT22;42008;52.934;5.884;2023-02-23T02:32:22;11.70;99.90
56137;DHT22;42008;52.934;5.884;2023-02-23T02:37:51;12.10;99.90
56137;DHT22;42008;52.934;5.884;2023-02-23T02:40:44;10.80;99.90
56137;DHT22;42008;52.934;5.884;2023-02-23T02:43:24;10.90;99.90
56137;DHT22;42008;52.934;5.884;2023-02-23T02:45:58;10.60;99.90
56137;DHT22;42008;52.934;5.884;2023-02-23T02:48:28;11.50;99.90
56137;DHT22;42008;52.934;5.884;2023-02-23T02:51:05;10.80;99.90
56137;DHT22;42008;52.934;5.884;2023-02-23T02:56:07;10.70;99.90
56137;DHT22;42008;52.934;5.884;2023-02-23T02:58:33;10.30;99.90
56137;DHT22;42008;52.934;5.884;2023-02-23T03:01:06;11.80;99.90
56137;DHT22;42008;52.934;5.884;2023-02-23T03:03:51;11.30;99.90
56137;DHT22;42008;52.934;5.884;2023-02-23T03:06:45;10.90;99.90
56137;DHT22;42008;52.934;5.884;2023-02-23T03:10:01;10.20;99.90
56137;DHT22;42008;52.934;5.884;2023-02-23T03:19:31;9.90;99.90
56137;DHT22;42008;52.934;5.884;2023-02-23T03:22:33;10.70;99.90
56137;DHT22;42008;52.934;5.884;2023-02-23T03:25:23;10.00;99.90
56137;DHT22;42008;52.934;5.884;2023-02-23T03:28:24;10.50;99.90
56137;DHT22;42008;52.934;5.884;2023-02-23T03:31:19;9.90;99.90
56137;DHT22;42008;52.934;5.884;2023-02-23T03:34:27;9.90;99.90
56137;DHT22;42008;52.934;5.884;2023-02-23T03:37:29;10.60;99.90
56137;DHT22;42008;52.934;5.884;2023-02-23T03:40:22;10.30;99.90
56137;DHT22;42008;52.934;5.884;2023-02-23T03:43:10;10.30;99.90
56137;DHT22;42008;52.934;5.884;2023-02-23T03:45:57;11.10;99.90
56137;DHT22;42008;52.934;5.884;2023-02-23T03:48:45;10.50;99.90
56137;DHT22;42008;52.934;5.884;2023-02-23T03:51:33;10.90;99.90
56137;DHT22;42008;52.934;5.884;2023-02-23T03:54:30;10.60;99.90
56137;DHT22;42008;52.934;5.884;2023-02-23T03:57:17;10.20;99.90
56137;DHT22;42008;52.934;5.884;2023-02-23T04:00:07;10.80;99.90
56137;DHT22;42008;52.934;5.884;2023-02-23T04:02:53;9.50;99.90
56137;DHT22;42008;52.934;5.884;2023-02-23T04:05:39;10.90;99.90
56137;DHT22;42008;52.934;5.884;2023-02-23T04:08:29;10.70;99.90
56137;DHT22;42008;52.934;5.884;2023-02-23T04:11:45;10.80;99.90
56137;DHT22;42008;52.934;5.884;2023-02-23T04:14:42;10.30;99.90
56137;DHT22;42008;52.934;5.884;2023-02-23T04:17:10;10.80;99.90
56137;DHT22;42008;52.934;5.884;2023-02-23T04:19:36;9.80;99.90
56137;DHT22;42008;52.934;5.884;2023-02-23T04:22:02;10.40;99.90
56137;DHT22;42008;52.934;5.884;2023-02-23T04:24:28;10.90;99.90
56137;DHT22;42008;52.934;5.884;2023-02-23T04:26:53;10.20;99.90
56137;DHT22;42008;52.934;5.884;2023-02-23T04:29:19;10.30;99.90
56137;DHT22;42008;52.934;5.884;2023-02-23T04:31:45;10.70;99.90
56137;DHT22;42008;52.934;5.884;2023-02-23T04:34:10;11.00;99.90
56137;DHT22;42008;52.934;5.884;2023-02-23T04:36:36;10.90;99.90
56137;DHT22;42008;52.934;5.884;2023-02-23T04:39:02;11.00;99.90
56137;DHT22;42008;52.934;5.884;2023-02-23T04:41:27;10.50;99.90
56137;DHT22;42008;52.934;5.884;2023-02-23T04:43:53;9.90;99.90
56137;DHT22;42008;52.934;5.884;2023-02-23T04:46:18;9.90;99.90
56137;DHT22;42008;52.934;5.884;2023-02-23T04:48:44;10.50;99.90
56137;DHT22;42008;52.934;5.884;2023-02-23T04:51:09;10.30;99.90
56137;DHT22;42008;52.934;5.884;2023-02-23T04:53:35;11.00;99.90
56137;DHT22;42008;52.934;5.884;2023-02-23T04:56:02;9.80;99.90
56137;DHT22;42008;52.934;5.884;2023-02-23T04:58:28;10.60;99.90
56137;DHT22;42008;52.934;5.884;2023-02-23T05:00:54;10.70;99.90
56137;DHT22;42008;52.934;5.884;2023-02-23T05:03:19;11.10;99.90
56137;DHT22;42008;52.934;5.884;2023-02-23T05:05:45;10.20;99.90
56137;DHT22;42008;52.934;5.884;2023-02-23T05:08:10;10.00;99.90
56137;DHT22;42008;52.934;5.884;2023-02-23T05:10:36;10.20;99.90
56137;DHT22;42008;52.934;5.884;2023-02-23T05:13:02;10.40;99.90
56137;DHT22;42008;52.934;5.884;2023-02-23T05:15:28;9.90;99.90
56137;DHT22;42008;52.934;5.884;2023-02-23T05:17:54;10.70;99.90
56137;DHT22;42008;52.934;5.884;2023-02-23T05:20:20;11.10;99.90
56137;DHT22;42008;52.934;5.884;2023-02-23T05:22:46;10.30;99.90
56137;DHT22;42008;52.934;5.884;2023-02-23T05:25:12;10.90;99.90
56137;DHT22;42008;52.934;5.884;2023-02-23T05:27:38;10.00;99.90
56137;DHT22;42008;52.934;5.884;2023-02-23T05:30:05;10.60;99.90
56137;DHT22;42008;52.934;5.884;2023-02-23T05:32:32;11.30;99.90
56137;DHT22;42008;52.934;5.884;2023-02-23T05:34:58;10.60;99.90
56137;DHT22;42008;52.934;5.884;2023-02-23T05:37:23;9.90;99.90
56137;DHT22;42008;52.934;5.884;2023-02-23T05:39:49;11.10;99.90
56137;DHT22;42008;52.934;5.884;2023-02-23T05:42:14;11.00;99.90
56137;DHT22;42008;52.934;5.884;2023-02-23T05:44:40;10.10;99.90
56137;DHT22;42008;52.934;5.884;2023-02-23T05:47:05;10.70;99.90
56137;DHT22;42008;52.934;5.884;2023-02-23T05:49:31;10.80;99.90
56137;DHT22;42008;52.934;5.884;2023-02-23T05:51:57;10.90;99.90
56137;DHT22;42008;52.934;5.884;2023-02-23T05:54:22;10.30;99.90
56137;DHT22;42008;52.934;5.884;2023-02-23T05:56:48;11.10;99.90
56137;DHT22;42008;52.934;5.884;2023-02-23T05:59:14;10.60;99.90
56137;DHT22;42008;52.934;5.884;2023-02-23T06:01:41;11.10;99.90
56137;DHT22;42008;52.934;5.884;2023-02-23T06:04:07;10.90;99.90
56137;DHT22;42008;52.934;5.884;2023-02-23T06:06:33;10.40;99.90
56137;DHT22;42008;52.934;5.884;2023-02-23T06:09:00;9.90;99.90
56137;DHT22;42008;52.934;5.884;2023-02-23T06:11:26;10.80;99.90
56137;DHT22;42008;52.934;5.884;2023-02-23T06:13:51;10.30;99.90
56137;DHT22;42008;52.934;5.884;2023-02-23T06:16:17;10.90;99.90
56137;DHT22;42008;52.934;5.884;2023-02-23T06:18:42;10.80;99.90
56137;DHT22;42008;52.934;5.884;2023-02-23T06:21:08;10.30;99.90
56137;DHT22;42008;52.934;5.884;2023-02-23T06:23:34;11.60;99.90
56137;DHT22;42008;52.934;5.884;2023-02-23T06:26:00;10.60;99.90
56137;DHT22;42008;52.934;5.884;2023-02-23T06:28:26;10.10;99.90
56137;DHT22;42008;52.934;5.884;2023-02-23T06:30:52;11.20;99.90
56137;DHT22;42008;52.934;5.884;2023-02-23T06:33:18;9.90;99.90
56137;DHT22;42008;52.934;5.884;2023-02-23T06:35:44;10.90;99.90
56137;DHT22;42008;52.934;5.884;2023-02-23T06:38:10;10.60;99.90
56137;DHT22;42008;52.934;5.884;2023-02-23T06:40:37;10.40;99.90
56137;DHT22;42008;52.934;5.884;2023-02-23T06:43:03;10.30;99.90
56137;DHT22;42008;52.934;5.884;2023-02-23T06:45:29;10.20;99.90
56137;DHT22;42008;52.934;5.884;2023-02-23T06:47:56;10.60;99.90
56137;DHT22;42008;52.934;5.884;2023-02-23T06:50:22;10.50;99.90
56137;DHT22;42008;52.934;5.884;2023-02-23T06:52:48;10.70;99.90
56137;DHT22;42008;52.934;5.884;2023-02-23T06:55:14;11.10;99.90
56137;DHT22;42008;52.934;5.884;2023-02-23T06:57:40;10.40;99.90
56137;DHT22;42008;52.934;5.884;2023-02-23T07:00:07;11.80;99.90
56137;DHT22;42008;52.934;5.884;2023-02-23T07:02:33;10.10;99.90
56137;DHT22;42008;52.934;5.884;2023-02-23T07:05:00;10.40;99.90
56137;DHT22;42008;52.934;5.884;2023-02-23T07:07:26;10.50;99.90
56137;DHT22;42008;52.934;5.884;2023-02-23T07:09:52;11.40;99.90
56137;DHT22;42008;52.934;5.884;2023-02-23T07:12:18;10.40;99.90
56137;DHT22;42008;52.934;5.884;2023-02-23T07:14:43;11.30;99.90
56137;DHT22;42008;52.934;5.884;2023-02-23T07:17:09;10.50;99.90
56137;DHT22;42008;52.934;5.884;2023-02-23T07:19:35;11.00;99.90
56137;DHT22;42008;52.934;5.884;2023-02-23T07:22:00;11.40;99.90
56137;DHT22;42008;52.934;5.884;2023-02-23T07:24:26;10.80;99.90
56137;DHT22;42008;52.934;5.884;2023-02-23T07:26:53;12.00;99.90
56137;DHT22;42008;52.934;5.884;2023-02-23T07:29:18;11.10;99.90
56137;DHT22;42008;52.934;5.884;2023-02-23T07:31:44;10.90;99.90
56137;DHT22;42008;52.934;5.884;2023-02-23T07:34:10;11.00;99.90
56137;DHT22;42008;52.934;5.884;2023-02-23T07:36:36;10.50;99.90
56137;DHT22;42008;52.934;5.884;2023-02-23T07:39:04;12.20;99.90
56137;DHT22;42008;52.934;5.884;2023-02-23T07:41:31;10.60;99.90
56137;DHT22;42008;52.934;5.884;2023-02-23T07:43:59;11.20;99.90
56137;DHT22;42008;52.934;5.884;2023-02-23T07:46:25;11.20;99.90
56137;DHT22;42008;52.934;5.884;2023-02-23T07:48:51;11.50;99.90
56137;DHT22;42008;52.934;5.884;2023-02-23T07:51:16;11.60;99.90
56137;DHT22;42008;52.934;5.884;2023-02-23T07:53:42;11.00;99.90
56137;DHT22;42008;52.934;5.884;2023-02-23T07:56:10;11.40;99.90
56137;DHT22;42008;52.934;5.884;2023-02-23T07:58:44;11.30;99.90
56137;DHT22;42008;52.934;5.884;2023-02-23T08:01:11;12.50;99.90
56137;DHT22;42008;52.934;5.884;2023-02-23T08:03:37;12.30;99.90
56137;DHT22;42008;52.934;5.884;2023-02-23T08:06:04;11.70;99.90
56137;DHT22;42008;52.934;5.884;2023-02-23T08:08:29;11.20;99.90
56137;DHT22;42008;52.934;5.884;2023-02-23T08:11:02;11.70;99.90
56137;DHT22;42008;52.934;5.884;2023-02-23T08:13:28;11.50;99.90
56137;DHT22;42008;52.934;5.884;2023-02-23T08:15:54;10.80;99.90
56137;DHT22;42008;52.934;5.884;2023-02-23T08:18:19;11.10;99.90
56137;DHT22;42008;52.934;5.884;2023-02-23T08:20:45;11.20;99.90
56137;DHT22;42008;52.934;5.884;2023-02-23T08:23:11;11.70;99.90
56137;DHT22;42008;52.934;5.884;2023-02-23T08:25:36;11.60;99.90
56137;DHT22;42008;52.934;5.884;2023-02-23T08:28:03;12.50;99.90
56137;DHT22;42008;52.934;5.884;2023-02-23T08:30:32;11.30;99.90
56137;DHT22;42008;52.934;5.884;2023-02-23T08:32:58;11.90;99.90
56137;DHT22;42008;52.934;5.884;2023-02-23T08:35:24;11.50;99.90
56137;DHT22;42008;52.934;5.884;2023-02-23T08:37:50;11.80;99.90
56137;DHT22;42008;52.934;5.884;2023-02-23T08:40:15;11.60;99.90
56137;DHT22;42008;52.934;5.884;2023-02-23T08:42:43;12.10;99.90
56137;DHT22;42008;52.934;5.884;2023-02-23T08:45:09;11.60;99.90
56137;DHT22;42008;52.934;5.884;2023-02-23T08:47:35;12.30;99.90
56137;DHT22;42008;52.934;5.884;2023-02-23T08:50:01;12.70;99.90
56137;DHT22;42008;52.934;5.884;2023-02-23T08:52:26;11.60;99.90
56137;DHT22;42008;52.934;5.884;2023-02-23T08:54:53;12.90;99.90
56137;DHT22;42008;52.934;5.884;2023-02-23T08:57:19;11.10;99.90
56137;DHT22;42008;52.934;5.884;2023-02-23T08:59:45;11.60;99.90
56137;DHT22;42008;52.934;5.884;2023-02-23T09:02:12;11.50;99.90
56137;DHT22;42008;52.934;5.884;2023-02-23T09:04:39;11.40;99.90
56137;DHT22;42008;52.934;5.884;2023-02-23T09:07:06;11.90;99.90
56137;DHT22;42008;52.934;5.884;2023-02-23T09:09:32;11.30;99.90
56137;DHT22;42008;52.934;5.884;2023-02-23T09:11:58;10.80;99.90
56137;DHT22;42008;52.934;5.884;2023-02-23T09:14:24;12.80;99.90
56137;DHT22;42008;52.934;5.884;2023-02-23T09:16:49;11.70;99.90
56137;DHT22;42008;52.934;5.884;2023-02-23T09:19:15;12.30;99.90
56137;DHT22;42008;52.934;5.884;2023-02-23T09:21:42;10.70;99.90
56137;DHT22;42008;52.934;5.884;2023-02-23T09:24:08;11.30;99.90
56137;DHT22;42008;52.934;5.884;2023-02-23T09:26:33;12.00;99.90
56137;DHT22;42008;52.934;5.884;2023-02-23T09:29:05;11.30;99.90
56137;DHT22;42008;52.934;5.884;2023-02-23T09:31:30;10.50;99.90
56137;DHT22;42008;52.934;5.884;2023-02-23T09:33:56;11.40;99.90
56137;DHT22;42008;52.934;5.884;2023-02-23T09:36:24;11.70;99.90
56137;DHT22;42008;52.934;5.884;2023-02-23T09:38:52;12.10;99.90
56137;DHT22;42008;52.934;5.884;2023-02-23T09:46:52;11.00;99.90
56137;DHT22;42008;52.934;5.884;2023-02-23T09:49:22;11.80;99.90
56137;DHT22;42008;52.934;5.884;2023-02-23T09:51:53;12.10;99.90
56137;DHT22;42008;52.934;5.884;2023-02-23T09:54:27;11.20;99.90
56137;DHT22;42008;52.934;5.884;2023-02-23T09:56:53;10.90;99.90
56137;DHT22;42008;52.934;5.884;2023-02-23T09:59:24;10.90;99.90
56137;DHT22;42008;52.934;5.884;2023-02-23T10:02:09;11.50;99.90
56137;DHT22;42008;52.934;5.884;2023-02-23T10:04:45;11.00;99.90
56137;DHT22;42008;52.934;5.884;2023-02-23T10:07:25;10.60;99.90
56137;DHT22;42008;52.934;5.884;2023-02-23T10:10:09;11.40;99.90
56137;DHT22;42008;52.934;5.884;2023-02-23T10:12:58;10.70;99.90
56137;DHT22;42008;52.934;5.884;2023-02-23T10:15:48;11.30;99.90
56137;DHT22;42008;52.934;5.884;2023-02-23T10:21:19;10.30;99.90
56137;DHT22;42008;52.934;5.884;2023-02-23T10:23:59;11.80;99.90
56137;DHT22;42008;52.934;5.884;2023-02-23T10:26:30;11.70;99.90
56137;DHT22;42008;52.934;5.884;2023-02-23T10:28:58;10.80;99.90
56137;DHT22;42008;52.934;5.884;2023-02-23T10:31:46;11.20;99.90
56137;DHT22;42008;52.934;5.884;2023-02-23T10:34:15;12.10;99.90
56137;DHT22;42008;52.934;5.884;2023-02-23T10:37:02;12.00;99.90
56137;DHT22;42008;52.934;5.884;2023-02-23T10:39:30;11.80;99.90
56137;DHT22;42008;52.934;5.884;2023-02-23T10:41:58;10.90;99.90
56137;DHT22;42008;52.934;5.884;2023-02-23T10:44:26;10.70;99.90
56137;DHT22;42008;52.934;5.884;2023-02-23T10:46:59;11.40;99.90
56137;DHT22;42008;52.934;5.884;2023-02-23T10:52:07;12.30;99.90
56137;DHT22;42008;52.934;5.884;2023-02-23T10:54:43;12.20;99.90
56137;DHT22;42008;52.934;5.884;2023-02-23T10:57:18;11.40;99.90
56137;DHT22;42008;52.934;5.884;2023-02-23T11:02:30;11.30;99.90
56137;DHT22;42008;52.934;5.884;2023-02-23T11:04:58;10.90;99.90
56137;DHT22;42008;52.934;5.884;2023-02-23T11:07:26;11.60;99.90
56137;DHT22;42008;52.934;5.884;2023-02-23T11:10:22;11.40;99.90
56137;DHT22;42008;52.934;5.884;2023-02-23T11:12:48;11.30;99.90
56137;DHT22;42008;52.934;5.884;2023-02-23T11:17:57;11.00;99.90
56137;DHT22;42008;52.934;5.884;2023-02-23T11:20:33;11.70;99.90
56137;DHT22;42008;52.934;5.884;2023-02-23T11:23:14;10.60;99.90
56137;DHT22;42008;52.934;5.884;2023-02-23T11:25:42;11.70;99.90
56137;DHT22;42008;52.934;5.884;2023-02-23T11:28:21;11.40;99.90
56137;DHT22;42008;52.934;5.884;2023-02-23T11:30:49;11.70;99.90
56137;DHT22;42008;52.934;5.884;2023-02-23T11:33:25;10.60;99.90
56137;DHT22;42008;52.934;5.884;2023-02-23T11:36:24;11.00;99.90
56137;DHT22;42008;52.934;5.884;2023-02-23T11:41:38;10.70;99.90
56137;DHT22;42008;52.934;5.884;2023-02-23T11:44:04;11.30;99.90
56137;DHT22;42008;52.934;5.884;2023-02-23T11:46:34;10.30;99.90
56137;DHT22;42008;52.934;5.884;2023-02-23T11:49:03;10.90;99.90
56137;DHT22;42008;52.934;5.884;2023-02-23T11:51:32;10.80;99.90
56137;DHT22;42008;52.934;5.884;2023-02-23T11:54:00;11.70;99.90
56137;DHT22;42008;52.934;5.884;2023-02-23T11:56:28;11.00;19.60
56137;DHT22;42008;52.934;5.884;2023-02-23T11:59:01;10.90;1.00
56137;DHT22;42008;52.934;5.884;2023-02-23T12:01:39;10.30;1.00
56137;DHT22;42008;52.934;5.884;2023-02-23T12:04:21;10.30;99.90
56137;DHT22;42008;52.934;5.884;2023-02-23T12:06:48;10.60;1.00
56137;DHT22;42008;52.934;5.884;2023-02-23T12:09:30;10.80;99.90
56137;DHT22;42008;52.934;5.884;2023-02-23T12:12:02;10.50;99.90
56137;DHT22;42008;52.934;5.884;2023-02-23T12:20:03;10.10;99.90
56137;DHT22;42008;52.934;5.884;2023-02-23T12:22:38;10.50;99.90
56137;DHT22;42008;52.934;5.884;2023-02-23T12:25:13;10.60;99.90
56137;DHT22;42008;52.934;5.884;2023-02-23T12:27:43;11.10;99.90
56137;DHT22;42008;52.934;5.884;2023-02-23T12:33:14;10.10;99.90
56137;DHT22;42008;52.934;5.884;2023-02-23T12:36:00;10.20;99.90
56137;DHT22;42008;52.934;5.884;2023-02-23T12:38:48;9.90;99.90
56137;DHT22;42008;52.934;5.884;2023-02-23T12:41:27;10.40;99.90
56137;DHT22;42008;52.934;5.884;2023-02-23T12:44:00;10.30;99.90
56137;DHT22;42008;52.934;5.884;2023-02-23T12:46:35;10.40;99.90
56137;DHT22;42008;52.934;5.884;2023-02-23T12:49:29;9.90;99.90
56137;DHT22;42008;52.934;5.884;2023-02-23T12:54:21;10.20;1.00
56137;DHT22;42008;52.934;5.884;2023-02-23T13:03:16;10.20;17.00
56137;DHT22;42008;52.934;5.884;2023-02-23T13:08:52;9.30;99.90
56137;DHT22;42008;52.934;5.884;2023-02-23T13:16:42;9.80;99.90
56137;DHT22;42008;52.934;5.884;2023-02-23T13:19:45;9.90;99.90
56137;DHT22;42008;52.934;5.884;2023-02-23T13:25:19;9.20;99.90
56137;DHT22;42008;52.934;5.884;2023-02-23T13:27:57;10.10;99.90
56137;DHT22;42008;52.934;5.884;2023-02-23T13:30:24;10.40;99.90
56137;DHT22;42008;52.934;5.884;2023-02-23T13:32:51;9.90;99.90
56137;DHT22;42008;52.934;5.884;2023-02-23T13:35:18;10.00;99.90
56137;DHT22;42008;52.934;5.884;2023-02-23T13:37:56;9.70;99.90
56137;DHT22;42008;52.934;5.884;2023-02-23T13:40:32;9.60;99.90
56137;DHT22;42008;52.934;5.884;2023-02-23T13:43:23;10.10;99.90
56137;DHT22;42008;52.934;5.884;2023-02-23T13:45:58;11.10;99.90
56137;DHT22;42008;52.934;5.884;2023-02-23T13:53:47;10.20;99.90
56137;DHT22;42008;52.934;5.884;2023-02-23T13:56:26;9.30;8.80
56137;DHT22;42008;52.934;5.884;2023-02-23T13:59:07;9.40;1.00
56137;DHT22;42008;52.934;5.884;2023-02-23T14:01:38;10.00;1.00
56137;DHT22;42008;52.934;5.884;2023-02-23T14:04:14;9.60;99.90
56137;DHT22;42008;52.934;5.884;2023-02-23T14:09:52;9.60;1.00
56137;DHT22;42008;52.934;5.884;2023-02-23T14:12:39;9.10;99.90
56137;DHT22;42008;52.934;5.884;2023-02-23T14:24:01;8.70;99.90
56137;DHT22;42008;52.934;5.884;2023-02-23T14:37:41;8.50;99.90
56137;DHT22;42008;52.934;5.884;2023-02-23T14:42:37;8.90;99.90
56137;DHT22;42008;52.934;5.884;2023-02-23T14:45:19;9.20;99.90
56137;DHT22;42008;52.934;5.884;2023-02-23T14:47:50;8.50;99.90
56137;DHT22;42008;52.934;5.884;2023-02-23T14:50:33;9.80;99.90
56137;DHT22;42008;52.934;5.884;2023-02-23T14:53:00;9.50;99.90
56137;DHT22;42008;52.934;5.884;2023-02-23T14:55:27;8.70;99.90
56137;DHT22;42008;52.934;5.884;2023-02-23T14:57:53;8.80;1.00
56137;DHT22;42008;52.934;5.884;2023-02-23T15:00:26;8.90;1.00
56137;DHT22;42008;52.934;5.884;2023-02-23T15:03:12;8.50;1.00
56137;DHT22;42008;52.934;5.884;2023-02-23T15:08:12;8.90;99.90
56137;DHT22;42008;52.934;5.884;2023-02-23T15:10:44;8.00;99.90
56137;DHT22;42008;52.934;5.884;2023-02-23T15:13:18;8.60;99.90
56137;DHT22;42008;52.934;5.884;2023-02-23T15:15:46;10.00;99.90
56137;DHT22;42008;52.934;5.884;2023-02-23T15:18:22;9.50;99.90
56137;DHT22;42008;52.934;5.884;2023-02-23T15:20:49;9.90;99.90
56137;DHT22;42008;52.934;5.884;2023-02-23T15:23:17;10.10;1.00
56137;DHT22;42008;52.934;5.884;2023-02-23T15:25:43;9.00;1.00
56137;DHT22;42008;52.934;5.884;2023-02-23T15:28:28;8.60;1.00
56137;DHT22;42008;52.934;5.884;2023-02-23T15:30:59;8.60;59.60
56137;DHT22;42008;52.934;5.884;2023-02-23T15:33:25;8.50;99.90
56137;DHT22;42008;52.934;5.884;2023-02-23T15:38:32;7.10;1.00
56137;DHT22;42008;52.934;5.884;2023-02-23T15:41:03;7.60;99.90
56137;DHT22;42008;52.934;5.884;2023-02-23T15:43:31;8.20;1.00
56137;DHT22;42008;52.934;5.884;2023-02-23T15:46:02;7.30;1.00
56137;DHT22;42008;52.934;5.884;2023-02-23T15:48:45;7.60;22.20
56137;DHT22;42008;52.934;5.884;2023-02-23T15:51:21;7.70;22.10
56137;DHT22;42008;52.934;5.884;2023-02-23T15:53:49;7.90;67.60
56137;DHT22;42008;52.934;5.884;2023-02-23T15:56:21;7.80;1.00
56137;DHT22;42008;52.934;5.884;2023-02-23T15:58:51;7.50;1.00
56137;DHT22;42008;52.934;5.884;2023-02-23T16:01:22;7.40;1.00
56137;DHT22;42008;52.934;5.884;2023-02-23T16:04:13;7.30;1.00
56137;DHT22;42008;52.934;5.884;2023-02-23T16:06:53;7.40;1.00
56137;DHT22;42008;52.934;5.884;2023-02-23T16:11:51;7.20;14.10
56137;DHT22;42008;52.934;5.884;2023-02-23T16:14:19;6.90;1.00
56137;DHT22;42008;52.934;5.884;2023-02-23T16:16:46;7.00;1.00
56137;DHT22;42008;52.934;5.884;2023-02-23T16:19:15;7.70;6.20
56137;DHT22;42008;52.934;5.884;2023-02-23T16:21:42;7.10;98.30
56137;DHT22;42008;52.934;5.884;2023-02-23T16:24:14;7.20;62.20
56137;DHT22;42008;52.934;5.884;2023-02-23T16:26:53;7.00;1.00
56137;DHT22;42008;52.934;5.884;2023-02-23T16:29:31;7.20;99.90
56137;DHT22;42008;52.934;5.884;2023-02-23T16:32:01;7.00;99.90
56137;DHT22;42008;52.934;5.884;2023-02-23T16:34:34;7.50;99.90
56137;DHT22;42008;52.934;5.884;2023-02-23T16:37:10;7.60;99.90
56137;DHT22;42008;52.934;5.884;2023-02-23T16:39:40;7.60;99.90
56137;DHT22;42008;52.934;5.884;2023-02-23T16:42:05;6.70;99.90
56137;DHT22;42008;52.934;5.884;2023-02-23T16:44:34;6.50;9.00
56137;DHT22;42008;52.934;5.884;2023-02-23T16:49:26;6.30;99.90
56137;DHT22;42008;52.934;5.884;2023-02-23T16:51:55;6.20;99.90
56137;DHT22;42008;52.934;5.884;2023-02-23T16:54:21;6.70;1.00
56137;DHT22;42008;52.934;5.884;2023-02-23T16:56:47;6.80;56.30
56137;DHT22;42008;52.934;5.884;2023-02-23T16:59:16;6.40;99.90
56137;DHT22;42008;52.934;5.884;2023-02-23T17:01:43;6.20;99.90
56137;DHT22;42008;52.934;5.884;2023-02-23T17:04:12;6.00;99.90
56137;DHT22;42008;52.934;5.884;2023-02-23T17:06:40;6.20;99.90
56137;DHT22;42008;52.934;5.884;2023-02-23T17:09:08;5.90;99.90
56137;DHT22;42008;52.934;5.884;2023-02-23T17:11:34;6.00;99.90
56137;DHT22;42008;52.934;5.884;2023-02-23T17:14:00;5.90;99.90
56137;DHT22;42008;52.934;5.884;2023-02-23T17:16:25;5.70;99.90
56137;DHT22;42008;52.934;5.884;2023-02-23T17:18:51;5.40;99.90
56137;DHT22;42008;52.934;5.884;2023-02-23T17:21:18;5.70;99.90
56137;DHT22;42008;52.934;5.884;2023-02-23T17:23:48;5.10;99.90
56137;DHT22;42008;52.934;5.884;2023-02-23T17:26:20;5.20;99.90
56137;DHT22;42008;52.934;5.884;2023-02-23T17:28:46;4.70;99.90
56137;DHT22;42008;52.934;5.884;2023-02-23T17:31:13;5.10;99.90
56137;DHT22;42008;52.934;5.884;2023-02-23T17:33:40;5.10;99.90
56137;DHT22;42008;52.934;5.884;2023-02-23T17:36:09;5.10;99.90
56137;DHT22;42008;52.934;5.884;2023-02-23T17:38:35;4.80;99.90
56137;DHT22;42008;52.934;5.884;2023-02-23T17:41:06;4.40;1.00
56137;DHT22;42008;52.934;5.884;2023-02-23T17:43:33;4.40;1.00
56137;DHT22;42008;52.934;5.884;2023-02-23T17:45:59;4.50;1.00
56137;DHT22;42008;52.934;5.884;2023-02-23T17:48:25;4.30;1.00
56137;DHT22;42008;52.934;5.884;2023-02-23T17:50:59;4.70;1.00
56137;DHT22;42008;52.934;5.884;2023-02-23T17:53:27;4.80;1.00
56137;DHT22;42008;52.934;5.884;2023-02-23T17:55:53;4.50;1.00
56137;DHT22;42008;52.934;5.884;2023-02-23T17:58:19;5.00;1.00
56137;DHT22;42008;52.934;5.884;2023-02-23T18:00:45;5.10;1.00
56137;DHT22;42008;52.934;5.884;2023-02-23T18:03:13;4.70;1.00